sensor_id;sensor_type;location;lat;lon;timestamp;P1;durP1;ratioP1;P2;durP2;ratioP2
59145;SDS011;44928;53.074;6.646;2022-09-01T00:02:24;2.88;;;1.38;;
59145;SDS011;44928;53.074;6.646;2022-09-01T00:04:52;3.17;;;1.10;;
59145;SDS011;44928;53.074;6.646;2022-09-01T00:07:23;3.50;;;1.20;;
59145;SDS011;44928;53.074;6.646;2022-09-01T00:09:51;1.98;;;1.05;;
59145;SDS011;44928;53.074;6.646;2022-09-01T00:12:17;3.88;;;1.20;;
59145;SDS011;44928;53.074;6.646;2022-09-01T00:14:43;4.10;;;1.05;;
59145;SDS011;44928;53.074;6.646;2022-09-01T00:17:09;3.58;;;1.25;;
59145;SDS011;44928;53.074;6.646;2022-09-01T00:19:36;4.43;;;1.50;;
59145;SDS011;44928;53.074;6.646;2022-09-01T00:22:04;3.15;;;1.13;;
59145;SDS011;44928;53.074;6.646;2022-09-01T00:24:30;3.97;;;1.25;;
59145;SDS011;44928;53.074;6.646;2022-09-01T00:26:56;5.35;;;1.10;;
59145;SDS011;44928;53.074;6.646;2022-09-01T00:29:22;4.43;;;1.27;;
59145;SDS011;44928;53.074;6.646;2022-09-01T00:31:49;3.15;;;0.98;;
59145;SDS011;44928;53.074;6.646;2022-09-01T00:34:15;4.25;;;1.35;;
59145;SDS011;44928;53.074;6.646;2022-09-01T00:36:42;2.20;;;0.90;;
59145;SDS011;44928;53.074;6.646;2022-09-01T00:39:08;2.33;;;0.90;;
59145;SDS011;44928;53.074;6.646;2022-09-01T00:41:35;3.92;;;1.20;;
59145;SDS011;44928;53.074;6.646;2022-09-01T00:44:04;2.15;;;0.80;;
59145;SDS011;44928;53.074;6.646;2022-09-01T00:46:37;3.97;;;1.10;;
59145;SDS011;44928;53.074;6.646;2022-09-01T00:49:09;5.75;;;1.25;;
59145;SDS011;44928;53.074;6.646;2022-09-01T00:51:39;6.18;;;1.10;;
59145;SDS011;44928;53.074;6.646;2022-09-01T00:54:07;5.18;;;1.40;;
59145;SDS011;44928;53.074;6.646;2022-09-01T00:56:39;2.38;;;0.80;;
59145;SDS011;44928;53.074;6.646;2022-09-01T00:59:07;3.63;;;1.00;;
59145;SDS011;44928;53.074;6.646;2022-09-01T01:01:34;4.43;;;1.05;;
59145;SDS011;44928;53.074;6.646;2022-09-01T01:04:01;2.55;;;1.15;;
59145;SDS011;44928;53.074;6.646;2022-09-01T01:06:29;2.42;;;0.93;;
59145;SDS011;44928;53.074;6.646;2022-09-01T01:08:57;3.83;;;0.90;;
59145;SDS011;44928;53.074;6.646;2022-09-01T01:11:26;3.92;;;1.13;;
59145;SDS011;44928;53.074;6.646;2022-09-01T01:14:00;3.70;;;1.08;;
59145;SDS011;44928;53.074;6.646;2022-09-01T01:16:36;3.53;;;1.20;;
59145;SDS011;44928;53.074;6.646;2022-09-01T01:19:10;6.70;;;1.27;;
59145;SDS011;44928;53.074;6.646;2022-09-01T01:22:09;2.53;;;1.17;;
59145;SDS011;44928;53.074;6.646;2022-09-01T01:25:00;2.78;;;1.05;;
59145;SDS011;44928;53.074;6.646;2022-09-01T01:27:30;3.88;;;1.27;;
59145;SDS011;44928;53.074;6.646;2022-09-01T01:29:58;3.60;;;1.17;;
59145;SDS011;44928;53.074;6.646;2022-09-01T01:32:28;3.22;;;0.88;;
59145;SDS011;44928;53.074;6.646;2022-09-01T01:34:54;2.67;;;1.00;;
59145;SDS011;44928;53.074;6.646;2022-09-01T01:37:21;2.53;;;1.00;;
59145;SDS011;44928;53.074;6.646;2022-09-01T01:39:49;3.17;;;0.90;;
59145;SDS011;44928;53.074;6.646;2022-09-01T01:42:15;3.53;;;0.88;;
59145;SDS011;44928;53.074;6.646;2022-09-01T01:44:42;4.45;;;0.90;;
59145;SDS011;44928;53.074;6.646;2022-09-01T01:47:09;2.22;;;0.80;;
59145;SDS011;44928;53.074;6.646;2022-09-01T01:49:37;3.65;;;1.20;;
59145;SDS011;44928;53.074;6.646;2022-09-01T01:52:08;3.97;;;1.17;;
59145;SDS011;44928;53.074;6.646;2022-09-01T01:54:34;3.58;;;1.00;;
59145;SDS011;44928;53.074;6.646;2022-09-01T01:57:01;2.42;;;1.00;;
59145;SDS011;44928;53.074;6.646;2022-09-01T01:59:32;2.33;;;1.00;;
59145;SDS011;44928;53.074;6.646;2022-09-01T02:01:58;3.88;;;1.10;;
59145;SDS011;44928;53.074;6.646;2022-09-01T02:04:27;5.05;;;1.15;;
59145;SDS011;44928;53.074;6.646;2022-09-01T02:09:24;3.40;;;1.00;;
59145;SDS011;44928;53.074;6.646;2022-09-01T02:11:50;3.10;;;1.10;;
59145;SDS011;44928;53.074;6.646;2022-09-01T02:14:21;3.42;;;1.15;;
59145;SDS011;44928;53.074;6.646;2022-09-01T02:16:47;4.13;;;1.27;;
59145;SDS011;44928;53.074;6.646;2022-09-01T02:19:13;2.03;;;1.00;;
59145;SDS011;44928;53.074;6.646;2022-09-01T02:21:43;4.05;;;1.10;;
59145;SDS011;44928;53.074;6.646;2022-09-01T02:24:13;3.27;;;1.00;;
59145;SDS011;44928;53.074;6.646;2022-09-01T02:26:43;2.40;;;0.95;;
59145;SDS011;44928;53.074;6.646;2022-09-01T02:29:17;4.90;;;1.00;;
59145;SDS011;44928;53.074;6.646;2022-09-01T02:31:49;3.65;;;0.93;;
59145;SDS011;44928;53.074;6.646;2022-09-01T02:34:17;2.92;;;1.10;;
59145;SDS011;44928;53.074;6.646;2022-09-01T02:36:48;3.95;;;1.00;;
59145;SDS011;44928;53.074;6.646;2022-09-01T02:41:41;3.88;;;1.08;;
59145;SDS011;44928;53.074;6.646;2022-09-01T02:44:08;4.43;;;1.27;;
59145;SDS011;44928;53.074;6.646;2022-09-01T02:46:42;3.22;;;1.10;;
59145;SDS011;44928;53.074;6.646;2022-09-01T02:49:09;3.63;;;1.15;;
59145;SDS011;44928;53.074;6.646;2022-09-01T02:51:43;3.80;;;1.03;;
59145;SDS011;44928;53.074;6.646;2022-09-01T02:54:11;3.05;;;1.10;;
59145;SDS011;44928;53.074;6.646;2022-09-01T02:56:42;5.97;;;1.30;;
59145;SDS011;44928;53.074;6.646;2022-09-01T03:01:41;2.88;;;1.27;;
59145;SDS011;44928;53.074;6.646;2022-09-01T03:04:09;4.68;;;1.25;;
59145;SDS011;44928;53.074;6.646;2022-09-01T03:06:35;5.45;;;1.48;;
59145;SDS011;44928;53.074;6.646;2022-09-01T03:09:06;3.92;;;1.13;;
59145;SDS011;44928;53.074;6.646;2022-09-01T03:11:35;7.10;;;1.00;;
59145;SDS011;44928;53.074;6.646;2022-09-01T03:14:04;4.53;;;1.30;;
59145;SDS011;44928;53.074;6.646;2022-09-01T03:16:32;3.28;;;1.17;;
59145;SDS011;44928;53.074;6.646;2022-09-01T03:18:58;4.60;;;1.20;;
59145;SDS011;44928;53.074;6.646;2022-09-01T03:21:27;4.55;;;1.30;;
59145;SDS011;44928;53.074;6.646;2022-09-01T03:23:53;5.55;;;1.40;;
59145;SDS011;44928;53.074;6.646;2022-09-01T03:26:21;3.72;;;1.17;;
59145;SDS011;44928;53.074;6.646;2022-09-01T03:28:48;2.67;;;1.00;;
59145;SDS011;44928;53.074;6.646;2022-09-01T03:31:15;3.80;;;1.20;;
59145;SDS011;44928;53.074;6.646;2022-09-01T03:33:42;3.10;;;1.10;;
59145;SDS011;44928;53.074;6.646;2022-09-01T03:36:08;4.22;;;1.10;;
59145;SDS011;44928;53.074;6.646;2022-09-01T03:38:43;3.63;;;1.23;;
59145;SDS011;44928;53.074;6.646;2022-09-01T03:41:13;5.70;;;1.38;;
59145;SDS011;44928;53.074;6.646;2022-09-01T03:43:42;3.63;;;1.15;;
59145;SDS011;44928;53.074;6.646;2022-09-01T03:46:09;3.53;;;1.20;;
59145;SDS011;44928;53.074;6.646;2022-09-01T03:48:35;4.07;;;1.40;;
59145;SDS011;44928;53.074;6.646;2022-09-01T03:51:01;2.40;;;1.00;;
59145;SDS011;44928;53.074;6.646;2022-09-01T03:53:28;2.38;;;1.00;;
59145;SDS011;44928;53.074;6.646;2022-09-01T03:56:00;3.67;;;1.23;;
59145;SDS011;44928;53.074;6.646;2022-09-01T03:58:28;2.25;;;1.00;;
59145;SDS011;44928;53.074;6.646;2022-09-01T04:00:55;3.70;;;1.10;;
59145;SDS011;44928;53.074;6.646;2022-09-01T04:03:25;3.88;;;1.20;;
59145;SDS011;44928;53.074;6.646;2022-09-01T04:05:54;4.55;;;1.20;;
59145;SDS011;44928;53.074;6.646;2022-09-01T04:08:20;4.03;;;1.17;;
59145;SDS011;44928;53.074;6.646;2022-09-01T04:10:55;2.58;;;0.95;;
59145;SDS011;44928;53.074;6.646;2022-09-01T04:13:29;2.55;;;1.00;;
59145;SDS011;44928;53.074;6.646;2022-09-01T04:15:58;3.28;;;1.13;;
59145;SDS011;44928;53.074;6.646;2022-09-01T04:18:24;5.00;;;1.20;;
59145;SDS011;44928;53.074;6.646;2022-09-01T04:20:51;3.40;;;1.20;;
59145;SDS011;44928;53.074;6.646;2022-09-01T04:25:55;5.43;;;1.30;;
59145;SDS011;44928;53.074;6.646;2022-09-01T04:28:29;3.50;;;1.10;;
59145;SDS011;44928;53.074;6.646;2022-09-01T04:30:58;3.22;;;1.00;;
59145;SDS011;44928;53.074;6.646;2022-09-01T04:33:30;4.63;;;1.42;;
59145;SDS011;44928;53.074;6.646;2022-09-01T04:36:03;4.80;;;1.20;;
59145;SDS011;44928;53.074;6.646;2022-09-01T04:38:30;3.05;;;1.10;;
59145;SDS011;44928;53.074;6.646;2022-09-01T04:41:06;4.03;;;1.15;;
59145;SDS011;44928;53.074;6.646;2022-09-01T04:43:33;5.00;;;1.30;;
59145;SDS011;44928;53.074;6.646;2022-09-01T04:46:00;5.75;;;1.33;;
59145;SDS011;44928;53.074;6.646;2022-09-01T04:48:27;4.45;;;1.20;;
59145;SDS011;44928;53.074;6.646;2022-09-01T04:50:53;5.28;;;1.45;;
59145;SDS011;44928;53.074;6.646;2022-09-01T04:53:20;4.30;;;1.33;;
59145;SDS011;44928;53.074;6.646;2022-09-01T04:55:46;4.20;;;1.38;;
59145;SDS011;44928;53.074;6.646;2022-09-01T04:58:15;3.45;;;1.35;;
59145;SDS011;44928;53.074;6.646;2022-09-01T05:00:46;5.60;;;1.50;;
59145;SDS011;44928;53.074;6.646;2022-09-01T05:03:16;4.80;;;1.60;;
59145;SDS011;44928;53.074;6.646;2022-09-01T05:05:46;5.97;;;1.40;;
59145;SDS011;44928;53.074;6.646;2022-09-01T05:08:16;7.35;;;1.60;;
59145;SDS011;44928;53.074;6.646;2022-09-01T05:10:45;12.23;;;2.13;;
59145;SDS011;44928;53.074;6.646;2022-09-01T05:13:16;11.63;;;2.00;;
59145;SDS011;44928;53.074;6.646;2022-09-01T05:15:44;5.32;;;1.70;;
59145;SDS011;44928;53.074;6.646;2022-09-01T05:18:17;5.13;;;1.70;;
59145;SDS011;44928;53.074;6.646;2022-09-01T05:20:52;5.50;;;1.35;;
59145;SDS011;44928;53.074;6.646;2022-09-01T05:23:19;7.78;;;1.60;;
59145;SDS011;44928;53.074;6.646;2022-09-01T05:25:46;6.40;;;1.65;;
59145;SDS011;44928;53.074;6.646;2022-09-01T05:28:17;6.72;;;2.63;;
59145;SDS011;44928;53.074;6.646;2022-09-01T05:30:44;8.02;;;2.22;;
59145;SDS011;44928;53.074;6.646;2022-09-01T05:33:11;4.65;;;1.70;;
59145;SDS011;44928;53.074;6.646;2022-09-01T05:35:51;5.75;;;1.80;;
59145;SDS011;44928;53.074;6.646;2022-09-01T05:38:19;6.00;;;1.60;;
59145;SDS011;44928;53.074;6.646;2022-09-01T05:40:54;6.20;;;1.80;;
59145;SDS011;44928;53.074;6.646;2022-09-01T05:43:22;6.80;;;1.70;;
59145;SDS011;44928;53.074;6.646;2022-09-01T05:45:48;5.55;;;1.60;;
59145;SDS011;44928;53.074;6.646;2022-09-01T05:48:13;4.72;;;1.70;;
59145;SDS011;44928;53.074;6.646;2022-09-01T05:50:45;6.75;;;1.63;;
59145;SDS011;44928;53.074;6.646;2022-09-01T05:53:13;22.63;;;3.47;;
59145;SDS011;44928;53.074;6.646;2022-09-01T05:55:45;16.55;;;2.83;;
59145;SDS011;44928;53.074;6.646;2022-09-01T05:58:13;12.77;;;2.78;;
59145;SDS011;44928;53.074;6.646;2022-09-01T06:00:43;19.95;;;2.35;;
59145;SDS011;44928;53.074;6.646;2022-09-01T06:03:14;13.45;;;2.97;;
59145;SDS011;44928;53.074;6.646;2022-09-01T06:05:42;9.32;;;1.77;;
59145;SDS011;44928;53.074;6.646;2022-09-01T06:08:17;13.95;;;2.33;;
59145;SDS011;44928;53.074;6.646;2022-09-01T06:10:45;6.22;;;1.83;;
59145;SDS011;44928;53.074;6.646;2022-09-01T06:13:14;9.57;;;1.90;;
59145;SDS011;44928;53.074;6.646;2022-09-01T06:15:42;5.78;;;1.70;;
59145;SDS011;44928;53.074;6.646;2022-09-01T06:18:11;6.50;;;1.60;;
59145;SDS011;44928;53.074;6.646;2022-09-01T06:20:38;6.63;;;2.08;;
59145;SDS011;44928;53.074;6.646;2022-09-01T06:23:05;10.45;;;2.00;;
59145;SDS011;44928;53.074;6.646;2022-09-01T06:25:31;9.48;;;2.33;;
59145;SDS011;44928;53.074;6.646;2022-09-01T06:28:00;10.45;;;1.85;;
59145;SDS011;44928;53.074;6.646;2022-09-01T06:30:28;10.10;;;2.15;;
59145;SDS011;44928;53.074;6.646;2022-09-01T06:32:55;8.38;;;2.20;;
59145;SDS011;44928;53.074;6.646;2022-09-01T06:35:21;6.28;;;1.92;;
59145;SDS011;44928;53.074;6.646;2022-09-01T06:37:53;8.25;;;2.00;;
59145;SDS011;44928;53.074;6.646;2022-09-01T06:40:20;7.38;;;2.13;;
59145;SDS011;44928;53.074;6.646;2022-09-01T06:42:50;11.80;;;2.33;;
59145;SDS011;44928;53.074;6.646;2022-09-01T06:45:18;8.18;;;2.15;;
59145;SDS011;44928;53.074;6.646;2022-09-01T06:47:46;9.43;;;2.35;;
59145;SDS011;44928;53.074;6.646;2022-09-01T06:50:15;5.18;;;1.65;;
59145;SDS011;44928;53.074;6.646;2022-09-01T06:52:44;5.60;;;1.73;;
59145;SDS011;44928;53.074;6.646;2022-09-01T06:55:11;6.82;;;2.08;;
59145;SDS011;44928;53.074;6.646;2022-09-01T06:57:38;6.53;;;1.90;;
59145;SDS011;44928;53.074;6.646;2022-09-01T07:00:06;6.93;;;1.75;;
59145;SDS011;44928;53.074;6.646;2022-09-01T07:02:52;8.35;;;1.80;;
59145;SDS011;44928;53.074;6.646;2022-09-01T07:05:21;5.35;;;1.60;;
59145;SDS011;44928;53.074;6.646;2022-09-01T07:07:48;6.80;;;1.98;;
59145;SDS011;44928;53.074;6.646;2022-09-01T07:10:16;6.80;;;1.95;;
59145;SDS011;44928;53.074;6.646;2022-09-01T07:12:44;6.95;;;2.15;;
59145;SDS011;44928;53.074;6.646;2022-09-01T07:15:12;9.63;;;2.22;;
59145;SDS011;44928;53.074;6.646;2022-09-01T07:17:42;6.65;;;1.52;;
59145;SDS011;44928;53.074;6.646;2022-09-01T07:20:14;12.32;;;2.30;;
59145;SDS011;44928;53.074;6.646;2022-09-01T07:22:40;6.68;;;1.80;;
59145;SDS011;44928;53.074;6.646;2022-09-01T07:25:07;6.57;;;2.15;;
59145;SDS011;44928;53.074;6.646;2022-09-01T07:27:36;6.30;;;1.98;;
59145;SDS011;44928;53.074;6.646;2022-09-01T07:30:03;5.88;;;1.85;;
59145;SDS011;44928;53.074;6.646;2022-09-01T07:32:33;6.97;;;2.17;;
59145;SDS011;44928;53.074;6.646;2022-09-01T07:35:01;6.55;;;1.98;;
59145;SDS011;44928;53.074;6.646;2022-09-01T07:37:30;6.38;;;1.80;;
59145;SDS011;44928;53.074;6.646;2022-09-01T07:39:58;5.75;;;1.80;;
59145;SDS011;44928;53.074;6.646;2022-09-01T07:42:24;6.03;;;1.60;;
59145;SDS011;44928;53.074;6.646;2022-09-01T07:44:51;4.38;;;1.50;;
59145;SDS011;44928;53.074;6.646;2022-09-01T07:47:20;14.32;;;2.60;;
59145;SDS011;44928;53.074;6.646;2022-09-01T07:49:46;6.22;;;1.73;;
59145;SDS011;44928;53.074;6.646;2022-09-01T07:52:12;7.45;;;2.15;;
59145;SDS011;44928;53.074;6.646;2022-09-01T07:54:38;5.30;;;1.63;;
59145;SDS011;44928;53.074;6.646;2022-09-01T07:57:04;7.72;;;1.75;;
59145;SDS011;44928;53.074;6.646;2022-09-01T07:59:30;5.68;;;1.70;;
59145;SDS011;44928;53.074;6.646;2022-09-01T08:01:57;5.80;;;1.80;;
59145;SDS011;44928;53.074;6.646;2022-09-01T08:04:23;5.60;;;1.58;;
59145;SDS011;44928;53.074;6.646;2022-09-01T08:06:50;5.65;;;1.60;;
59145;SDS011;44928;53.074;6.646;2022-09-01T08:09:17;6.50;;;1.75;;
59145;SDS011;44928;53.074;6.646;2022-09-01T08:11:43;5.38;;;1.60;;
59145;SDS011;44928;53.074;6.646;2022-09-01T08:14:08;4.78;;;1.50;;
59145;SDS011;44928;53.074;6.646;2022-09-01T08:16:37;5.03;;;1.27;;
59145;SDS011;44928;53.074;6.646;2022-09-01T08:19:03;7.93;;;1.73;;
59145;SDS011;44928;53.074;6.646;2022-09-01T08:21:28;4.85;;;1.60;;
59145;SDS011;44928;53.074;6.646;2022-09-01T08:23:55;6.15;;;1.30;;
59145;SDS011;44928;53.074;6.646;2022-09-01T08:26:22;10.55;;;1.88;;
59145;SDS011;44928;53.074;6.646;2022-09-01T08:28:50;7.95;;;2.13;;
59145;SDS011;44928;53.074;6.646;2022-09-01T08:31:18;6.97;;;1.42;;
59145;SDS011;44928;53.074;6.646;2022-09-01T08:33:45;8.93;;;1.77;;
59145;SDS011;44928;53.074;6.646;2022-09-01T08:36:12;9.45;;;2.03;;
59145;SDS011;44928;53.074;6.646;2022-09-01T08:38:39;6.68;;;1.73;;
59145;SDS011;44928;53.074;6.646;2022-09-01T08:41:29;16.27;;;2.25;;
59145;SDS011;44928;53.074;6.646;2022-09-01T08:46:53;4.82;;;1.35;;
59145;SDS011;44928;53.074;6.646;2022-09-01T08:49:23;4.63;;;1.45;;
59145;SDS011;44928;53.074;6.646;2022-09-01T08:57:01;6.20;;;1.60;;
59145;SDS011;44928;53.074;6.646;2022-09-01T08:59:32;4.55;;;1.50;;
59145;SDS011;44928;53.074;6.646;2022-09-01T09:07:31;4.40;;;1.30;;
59145;SDS011;44928;53.074;6.646;2022-09-01T09:10:17;6.22;;;1.00;;
59145;SDS011;44928;53.074;6.646;2022-09-01T09:15:33;2.90;;;1.00;;
59145;SDS011;44928;53.074;6.646;2022-09-01T09:18:12;3.67;;;1.30;;
59145;SDS011;44928;53.074;6.646;2022-09-01T09:20:40;3.80;;;1.17;;
59145;SDS011;44928;53.074;6.646;2022-09-01T09:23:11;2.58;;;0.93;;
59145;SDS011;44928;53.074;6.646;2022-09-01T09:25:48;3.30;;;1.07;;
59145;SDS011;44928;53.074;6.646;2022-09-01T09:28:15;3.75;;;1.20;;
59145;SDS011;44928;53.074;6.646;2022-09-01T09:30:40;3.70;;;1.00;;
59145;SDS011;44928;53.074;6.646;2022-09-01T09:33:06;2.97;;;0.80;;
59145;SDS011;44928;53.074;6.646;2022-09-01T09:35:41;4.35;;;1.10;;
59145;SDS011;44928;53.074;6.646;2022-09-01T09:40:58;2.25;;;0.90;;
59145;SDS011;44928;53.074;6.646;2022-09-01T09:43:36;2.25;;;0.80;;
59145;SDS011;44928;53.074;6.646;2022-09-01T09:51:52;3.50;;;0.80;;
59145;SDS011;44928;53.074;6.646;2022-09-01T09:57:28;2.28;;;0.82;;
59145;SDS011;44928;53.074;6.646;2022-09-01T10:00:00;2.75;;;0.80;;
59145;SDS011;44928;53.074;6.646;2022-09-01T10:02:42;2.30;;;0.82;;
59145;SDS011;44928;53.074;6.646;2022-09-01T10:05:21;4.80;;;0.90;;
59145;SDS011;44928;53.074;6.646;2022-09-01T10:07:54;3.65;;;0.90;;
59145;SDS011;44928;53.074;6.646;2022-09-01T10:13:13;3.13;;;0.90;;
59145;SDS011;44928;53.074;6.646;2022-09-01T10:15:49;2.92;;;0.80;;
59145;SDS011;44928;53.074;6.646;2022-09-01T10:18:22;4.15;;;0.80;;
59145;SDS011;44928;53.074;6.646;2022-09-01T10:21:12;3.30;;;0.82;;
59145;SDS011;44928;53.074;6.646;2022-09-01T10:23:41;3.10;;;0.70;;
59145;SDS011;44928;53.074;6.646;2022-09-01T10:26:13;8.60;;;1.20;;
59145;SDS011;44928;53.074;6.646;2022-09-01T10:31:25;4.50;;;1.10;;
59145;SDS011;44928;53.074;6.646;2022-09-01T10:33:52;5.05;;;0.98;;
59145;SDS011;44928;53.074;6.646;2022-09-01T10:36:18;1.10;;;0.38;;
59145;SDS011;44928;53.074;6.646;2022-09-01T10:38:46;3.45;;;0.70;;
59145;SDS011;44928;53.074;6.646;2022-09-01T10:41:58;1.75;;;0.75;;
59145;SDS011;44928;53.074;6.646;2022-09-01T10:44:58;2.08;;;0.80;;
59145;SDS011;44928;53.074;6.646;2022-09-01T10:47:25;5.82;;;1.15;;
59145;SDS011;44928;53.074;6.646;2022-09-01T10:49:59;4.35;;;0.90;;
59145;SDS011;44928;53.074;6.646;2022-09-01T10:55:28;2.60;;;0.80;;
59145;SDS011;44928;53.074;6.646;2022-09-01T11:13:53;3.57;;;0.77;;
59145;SDS011;44928;53.074;6.646;2022-09-01T11:18:53;2.92;;;0.88;;
59145;SDS011;44928;53.074;6.646;2022-09-01T11:21:27;8.25;;;1.00;;
59145;SDS011;44928;53.074;6.646;2022-09-01T11:26:58;3.97;;;0.80;;
59145;SDS011;44928;53.074;6.646;2022-09-01T11:32:26;2.40;;;0.70;;
59145;SDS011;44928;53.074;6.646;2022-09-01T11:34:58;2.85;;;0.70;;
59145;SDS011;44928;53.074;6.646;2022-09-01T11:37:26;4.38;;;1.10;;
59145;SDS011;44928;53.074;6.646;2022-09-01T11:39:57;1.00;;;0.60;;
59145;SDS011;44928;53.074;6.646;2022-09-01T11:42:35;2.97;;;1.00;;
59145;SDS011;44928;53.074;6.646;2022-09-01T11:45:27;4.10;;;0.82;;
59145;SDS011;44928;53.074;6.646;2022-09-01T11:48:02;3.13;;;0.90;;
59145;SDS011;44928;53.074;6.646;2022-09-01T11:50:37;3.38;;;0.88;;
59145;SDS011;44928;53.074;6.646;2022-09-01T11:55:39;4.03;;;0.85;;
59145;SDS011;44928;53.074;6.646;2022-09-01T11:58:10;3.13;;;0.80;;
59145;SDS011;44928;53.074;6.646;2022-09-01T12:00:39;3.65;;;0.75;;
59145;SDS011;44928;53.074;6.646;2022-09-01T12:03:19;4.07;;;0.80;;
59145;SDS011;44928;53.074;6.646;2022-09-01T12:06:04;2.42;;;0.65;;
59145;SDS011;44928;53.074;6.646;2022-09-01T12:08:32;1.90;;;0.60;;
59145;SDS011;44928;53.074;6.646;2022-09-01T12:13:30;5.63;;;1.05;;
59145;SDS011;44928;53.074;6.646;2022-09-01T12:16:01;5.57;;;1.02;;
59145;SDS011;44928;53.074;6.646;2022-09-01T12:18:30;3.22;;;0.70;;
59145;SDS011;44928;53.074;6.646;2022-09-01T12:21:01;1.75;;;0.70;;
59145;SDS011;44928;53.074;6.646;2022-09-01T12:23:32;3.30;;;0.90;;
59145;SDS011;44928;53.074;6.646;2022-09-01T12:26:05;2.85;;;0.80;;
59145;SDS011;44928;53.074;6.646;2022-09-01T12:28:34;4.07;;;0.70;;
59145;SDS011;44928;53.074;6.646;2022-09-01T12:31:07;2.83;;;0.70;;
59145;SDS011;44928;53.074;6.646;2022-09-01T12:33:38;5.03;;;1.20;;
59145;SDS011;44928;53.074;6.646;2022-09-01T12:38:46;4.43;;;0.90;;
59145;SDS011;44928;53.074;6.646;2022-09-01T12:41:25;5.10;;;0.85;;
59145;SDS011;44928;53.074;6.646;2022-09-01T12:46:53;1.95;;;0.40;;
59145;SDS011;44928;53.074;6.646;2022-09-01T12:49:24;3.58;;;0.98;;
59145;SDS011;44928;53.074;6.646;2022-09-01T12:52:08;3.28;;;0.90;;
59145;SDS011;44928;53.074;6.646;2022-09-01T12:54:37;2.90;;;0.73;;
59145;SDS011;44928;53.074;6.646;2022-09-01T12:57:03;3.42;;;0.75;;
59145;SDS011;44928;53.074;6.646;2022-09-01T12:59:30;4.00;;;0.73;;
59145;SDS011;44928;53.074;6.646;2022-09-01T13:01:56;1.85;;;0.60;;
59145;SDS011;44928;53.074;6.646;2022-09-01T13:06:49;3.65;;;0.95;;
59145;SDS011;44928;53.074;6.646;2022-09-01T13:09:16;5.18;;;0.73;;
59145;SDS011;44928;53.074;6.646;2022-09-01T13:11:42;7.38;;;1.08;;
59145;SDS011;44928;53.074;6.646;2022-09-01T13:14:11;6.15;;;1.10;;
59145;SDS011;44928;53.074;6.646;2022-09-01T13:16:38;8.25;;;0.90;;
59145;SDS011;44928;53.074;6.646;2022-09-01T13:19:04;3.40;;;0.80;;
59145;SDS011;44928;53.074;6.646;2022-09-01T13:21:31;3.10;;;0.93;;
59145;SDS011;44928;53.074;6.646;2022-09-01T13:23:59;4.93;;;0.80;;
59145;SDS011;44928;53.074;6.646;2022-09-01T13:26:26;1.77;;;0.80;;
59145;SDS011;44928;53.074;6.646;2022-09-01T13:28:55;3.72;;;0.88;;
59145;SDS011;44928;53.074;6.646;2022-09-01T13:31:22;2.88;;;0.70;;
59145;SDS011;44928;53.074;6.646;2022-09-01T13:33:48;1.02;;;0.60;;
59145;SDS011;44928;53.074;6.646;2022-09-01T13:36:14;2.08;;;0.70;;
59145;SDS011;44928;53.074;6.646;2022-09-01T13:38:40;4.07;;;0.80;;
59145;SDS011;44928;53.074;6.646;2022-09-01T13:41:06;3.60;;;0.90;;
59145;SDS011;44928;53.074;6.646;2022-09-01T13:43:35;2.13;;;0.77;;
59145;SDS011;44928;53.074;6.646;2022-09-01T13:46:00;2.83;;;0.82;;
59145;SDS011;44928;53.074;6.646;2022-09-01T13:48:26;2.03;;;0.75;;
59145;SDS011;44928;53.074;6.646;2022-09-01T13:50:53;8.18;;;2.10;;
59145;SDS011;44928;53.074;6.646;2022-09-01T13:53:19;5.72;;;0.98;;
59145;SDS011;44928;53.074;6.646;2022-09-01T13:55:46;5.03;;;0.90;;
59145;SDS011;44928;53.074;6.646;2022-09-01T13:58:12;3.60;;;0.77;;
59145;SDS011;44928;53.074;6.646;2022-09-01T14:00:41;6.80;;;0.88;;
59145;SDS011;44928;53.074;6.646;2022-09-01T14:03:13;3.85;;;0.63;;
59145;SDS011;44928;53.074;6.646;2022-09-01T14:05:42;2.40;;;0.70;;
59145;SDS011;44928;53.074;6.646;2022-09-01T14:08:10;6.13;;;1.63;;
59145;SDS011;44928;53.074;6.646;2022-09-01T14:10:38;4.13;;;0.88;;
59145;SDS011;44928;53.074;6.646;2022-09-01T14:13:06;4.53;;;1.08;;
59145;SDS011;44928;53.074;6.646;2022-09-01T14:15:33;10.98;;;1.33;;
59145;SDS011;44928;53.074;6.646;2022-09-01T14:18:00;4.10;;;0.90;;
59145;SDS011;44928;53.074;6.646;2022-09-01T14:20:27;4.55;;;0.75;;
59145;SDS011;44928;53.074;6.646;2022-09-01T14:22:55;4.85;;;0.98;;
59145;SDS011;44928;53.074;6.646;2022-09-01T14:25:22;3.70;;;0.95;;
59145;SDS011;44928;53.074;6.646;2022-09-01T14:27:48;4.07;;;0.68;;
59145;SDS011;44928;53.074;6.646;2022-09-01T14:30:16;23.77;;;2.40;;
59145;SDS011;44928;53.074;6.646;2022-09-01T14:32:47;4.18;;;0.80;;
59145;SDS011;44928;53.074;6.646;2022-09-01T14:35:14;16.15;;;1.85;;
59145;SDS011;44928;53.074;6.646;2022-09-01T14:37:41;3.58;;;0.80;;
59145;SDS011;44928;53.074;6.646;2022-09-01T14:40:09;2.88;;;0.75;;
59145;SDS011;44928;53.074;6.646;2022-09-01T14:42:39;2.83;;;0.70;;
59145;SDS011;44928;53.074;6.646;2022-09-01T14:45:11;2.78;;;0.93;;
59145;SDS011;44928;53.074;6.646;2022-09-01T14:47:39;2.10;;;0.70;;
59145;SDS011;44928;53.074;6.646;2022-09-01T14:50:05;2.35;;;0.85;;
59145;SDS011;44928;53.074;6.646;2022-09-01T14:52:31;2.72;;;0.70;;
59145;SDS011;44928;53.074;6.646;2022-09-01T14:54:59;2.70;;;0.63;;
59145;SDS011;44928;53.074;6.646;2022-09-01T14:57:25;4.75;;;0.80;;
59145;SDS011;44928;53.074;6.646;2022-09-01T14:59:51;2.78;;;0.70;;
59145;SDS011;44928;53.074;6.646;2022-09-01T15:02:16;1.10;;;0.47;;
59145;SDS011;44928;53.074;6.646;2022-09-01T15:04:42;2.60;;;0.60;;
59145;SDS011;44928;53.074;6.646;2022-09-01T15:07:08;3.00;;;0.65;;
59145;SDS011;44928;53.074;6.646;2022-09-01T15:09:34;2.30;;;0.60;;
59145;SDS011;44928;53.074;6.646;2022-09-01T15:12:01;2.00;;;0.60;;
59145;SDS011;44928;53.074;6.646;2022-09-01T15:14:27;1.67;;;0.60;;
59145;SDS011;44928;53.074;6.646;2022-09-01T15:16:53;1.73;;;0.60;;
59145;SDS011;44928;53.074;6.646;2022-09-01T15:19:19;2.53;;;0.75;;
59145;SDS011;44928;53.074;6.646;2022-09-01T15:21:45;3.17;;;0.63;;
59145;SDS011;44928;53.074;6.646;2022-09-01T15:24:11;4.30;;;0.73;;
59145;SDS011;44928;53.074;6.646;2022-09-01T15:26:38;3.50;;;0.70;;
59145;SDS011;44928;53.074;6.646;2022-09-01T15:29:05;4.65;;;0.65;;
59145;SDS011;44928;53.074;6.646;2022-09-01T15:31:38;2.92;;;0.70;;
59145;SDS011;44928;53.074;6.646;2022-09-01T15:34:04;3.13;;;0.70;;
59145;SDS011;44928;53.074;6.646;2022-09-01T15:36:32;2.10;;;0.60;;
59145;SDS011;44928;53.074;6.646;2022-09-01T15:38:59;3.65;;;0.65;;
59145;SDS011;44928;53.074;6.646;2022-09-01T15:41:26;2.67;;;0.50;;
59145;SDS011;44928;53.074;6.646;2022-09-01T15:43:55;2.75;;;0.70;;
59145;SDS011;44928;53.074;6.646;2022-09-01T15:46:22;2.13;;;0.70;;
59145;SDS011;44928;53.074;6.646;2022-09-01T15:48:56;2.72;;;0.70;;
59145;SDS011;44928;53.074;6.646;2022-09-01T15:53:54;1.60;;;0.52;;
59145;SDS011;44928;53.074;6.646;2022-09-01T15:56:29;2.83;;;0.75;;
59145;SDS011;44928;53.074;6.646;2022-09-01T15:58:55;2.95;;;0.63;;
59145;SDS011;44928;53.074;6.646;2022-09-01T16:01:23;7.35;;;0.80;;
59145;SDS011;44928;53.074;6.646;2022-09-01T16:03:49;3.20;;;0.70;;
59145;SDS011;44928;53.074;6.646;2022-09-01T16:06:15;5.20;;;0.82;;
59145;SDS011;44928;53.074;6.646;2022-09-01T16:08:41;7.97;;;0.95;;
59145;SDS011;44928;53.074;6.646;2022-09-01T16:11:08;2.67;;;0.73;;
59145;SDS011;44928;53.074;6.646;2022-09-01T16:13:36;2.03;;;0.50;;
59145;SDS011;44928;53.074;6.646;2022-09-01T16:16:19;3.97;;;0.60;;
59145;SDS011;44928;53.074;6.646;2022-09-01T16:19:21;2.55;;;0.60;;
59145;SDS011;44928;53.074;6.646;2022-09-01T16:24:26;1.95;;;0.55;;
59145;SDS011;44928;53.074;6.646;2022-09-01T16:26:52;2.92;;;0.90;;
59145;SDS011;44928;53.074;6.646;2022-09-01T16:29:36;2.55;;;0.50;;
59145;SDS011;44928;53.074;6.646;2022-09-01T16:32:36;6.50;;;0.80;;